Upstream stations:
Downstream station:
SHEF ID: WANO2 Cimarron River near Waynoka, OK
STATION TYPE:
Regulating: Stage = 9.00, Flow = 4005
PRECIP STAGE RIV-FLOW BAT-LOAD
in ft cfs volt
Ccp-Rev Ccp-Rev Ccp-Rev Ccp-Rev
(US/Central)
01/22 00:00 0.00 5.58 24 12.73
01/22 01:00 0.00 5.60 28 12.65
01/22 02:00 0.00 5.59 27 12.65
01/22 03:00 0.00 5.59 27 12.65
01/22 04:00 0.00 5.58 24 12.65
01/22 05:00 0.00 5.57 22 12.57
01/22 06:00 0.00 5.57 22 12.57
01/22 07:00 0.00 5.57 22 12.49
01/22 08:00 0.00 5.58 24 12.49
01/22 09:00 0.00 5.58 24 12.57
01/22 10:00 0.00 5.57 22 13.21
01/22 11:00 0.00 5.56 19 14.00
01/22 12:00 0.00 5.56 19 13.92
01/22 13:00 0.00 5.57 22 13.76
01/22 14:00 0.00 5.57 22 13.68
01/22 15:00 0.00 5.56 19 13.68
01/22 16:00 0.00 5.57 22 13.68
01/22 17:00 0.00 5.58 24 13.68
01/22 18:00 0.00 5.61 29 13.44
01/22 19:00 0.00 5.63 32 13.13
01/22 20:00 0.00 5.63 32 12.89
01/22 21:00 0.00 5.62 31 12.81
01/22 22:00 0.00 5.61 29 12.81
01/22 23:00 0.00 5.60 28 12.73